createdAt,value
2023-04-16T00:02:05.166Z,7.93
2023-04-16T00:04:34.317Z,2.92
2023-04-16T00:07:02.795Z,8.80
2023-04-16T00:09:31.374Z,11.25
2023-04-16T00:12:00.034Z,7.30
2023-04-16T00:14:29.962Z,9.13
2023-04-16T00:17:05.609Z,12.30
2023-04-16T00:19:33.985Z,13.93
2023-04-16T00:22:02.446Z,8.27
2023-04-16T00:24:31.072Z,5.05
2023-04-16T00:26:59.897Z,5.05
2023-04-16T00:29:31.000Z,4.85
2023-04-16T00:31:59.649Z,7.50
2023-04-16T00:34:28.576Z,4.30
2023-04-16T00:36:57.140Z,6.80
2023-04-16T00:39:25.720Z,5.20
2023-04-16T00:41:56.639Z,5.55
2023-04-16T00:44:24.904Z,8.15
2023-04-16T00:46:58.946Z,7.43
2023-04-16T00:49:27.317Z,7.38
2023-04-16T00:51:55.674Z,9.65
2023-04-16T00:54:24.285Z,11.07
2023-04-16T00:56:53.095Z,8.05
2023-04-16T00:59:21.511Z,7.50
2023-04-16T01:01:49.938Z,6.18
2023-04-16T01:04:19.928Z,6.30
2023-04-16T01:06:53.186Z,11.75
2023-04-16T01:09:21.739Z,5.97
2023-04-16T01:11:56.565Z,5.90
2023-04-16T01:14:24.945Z,5.88
2023-04-16T01:16:53.543Z,7.00
2023-04-16T01:19:23.138Z,9.20
2023-04-16T01:21:54.733Z,9.93
2023-04-16T01:24:23.130Z,8.15
2023-04-16T01:26:51.418Z,5.75
2023-04-16T01:29:22.039Z,12.57
2023-04-16T01:31:54.489Z,6.63
2023-04-16T01:34:33.138Z,6.80
2023-04-16T01:37:03.195Z,4.43
2023-04-16T01:39:31.694Z,5.88
2023-04-16T01:42:00.049Z,6.55
2023-04-16T01:44:28.675Z,4.55
2023-04-16T01:46:57.047Z,9.10
2023-04-16T01:49:26.097Z,11.98
2023-04-16T01:51:56.382Z,6.03
2023-04-16T01:54:28.212Z,10.55
2023-04-16T01:57:01.811Z,8.52
2023-04-16T01:59:30.067Z,8.90
2023-04-16T02:01:58.876Z,12.63
2023-04-16T02:04:29.716Z,8.38
2023-04-16T02:06:58.343Z,10.68
2023-04-16T02:09:29.057Z,11.45
2023-04-16T02:11:57.332Z,13.23
2023-04-16T02:14:25.676Z,9.35
2023-04-16T02:16:54.401Z,12.82
2023-04-16T02:19:37.032Z,12.65
2023-04-16T02:22:08.326Z,17.23
2023-04-16T02:24:37.894Z,14.45
2023-04-16T02:27:09.986Z,6.97
2023-04-16T02:29:43.185Z,7.72
2023-04-16T02:32:16.317Z,12.05
2023-04-16T02:34:46.788Z,8.93
2023-04-16T02:37:16.302Z,8.45
2023-04-16T02:39:47.556Z,12.82
2023-04-16T02:42:16.171Z,10.20
2023-04-16T02:44:46.650Z,10.57
2023-04-16T02:47:17.368Z,9.30
2023-04-16T02:49:45.658Z,11.98
2023-04-16T02:52:15.522Z,8.27
2023-04-16T02:54:44.111Z,7.15
2023-04-16T02:57:15.975Z,6.97
2023-04-16T02:59:46.801Z,12.02
2023-04-16T03:02:15.078Z,12.20
2023-04-16T03:04:43.488Z,10.05
2023-04-16T03:07:13.060Z,7.85
2023-04-16T03:09:41.429Z,7.85
2023-04-16T03:12:09.677Z,9.13
2023-04-16T03:14:39.497Z,13.43
2023-04-16T03:17:07.935Z,8.80
2023-04-16T03:19:43.194Z,14.60
2023-04-16T03:22:11.464Z,8.82
2023-04-16T03:24:39.768Z,11.05
2023-04-16T03:27:08.833Z,10.35
2023-04-16T03:29:39.712Z,14.93
2023-04-16T03:32:09.684Z,8.52
2023-04-16T03:34:38.830Z,5.88
2023-04-16T03:37:12.154Z,8.93
2023-04-16T03:39:40.870Z,6.72
2023-04-16T03:42:12.662Z,5.45
2023-04-16T03:44:42.235Z,10.32
2023-04-16T03:47:11.342Z,9.80
2023-04-16T03:49:39.904Z,6.85
2023-04-16T03:52:08.153Z,6.97
2023-04-16T03:54:36.544Z,6.35
2023-04-16T03:57:21.594Z,4.05
2023-04-16T03:59:51.676Z,5.95
2023-04-16T04:02:23.005Z,7.18
2023-04-16T04:04:53.947Z,6.63
2023-04-16T04:07:24.911Z,9.55
2023-04-16T04:09:54.461Z,6.50
2023-04-16T04:12:23.095Z,5.50
2023-04-16T04:14:52.820Z,6.30
2023-04-16T04:17:22.350Z,7.60
2023-04-16T04:20:01.316Z,6.85
2023-04-16T04:22:31.789Z,7.05
2023-04-16T04:25:00.439Z,13.40
2023-04-16T04:27:33.441Z,7.03
2023-04-16T04:30:05.593Z,6.63
2023-04-16T04:32:34.781Z,15.52
2023-04-16T04:35:04.065Z,5.70
2023-04-16T04:37:32.428Z,7.45
2023-04-16T04:40:03.018Z,10.70
2023-04-16T04:42:31.734Z,17.40
2023-04-16T04:45:02.425Z,10.05
2023-04-16T04:47:34.537Z,8.40
2023-04-16T04:50:04.909Z,11.65
2023-04-16T04:52:34.765Z,12.75
2023-04-16T04:55:04.268Z,7.07
2023-04-16T04:57:32.637Z,8.40
2023-04-16T05:00:04.320Z,9.73
2023-04-16T05:02:42.236Z,8.02
2023-04-16T05:05:10.821Z,10.63
2023-04-16T05:07:39.309Z,10.52
2023-04-16T05:10:08.197Z,11.02
2023-04-16T05:12:39.929Z,10.32
2023-04-16T05:15:08.689Z,14.95
2023-04-16T05:17:37.105Z,9.15
2023-04-16T05:20:07.173Z,12.30
2023-04-16T05:22:35.613Z,13.15
2023-04-16T05:25:04.417Z,10.50
2023-04-16T05:27:32.721Z,11.00
2023-04-16T05:30:01.152Z,9.05
2023-04-16T05:32:29.698Z,13.52
2023-04-16T05:34:57.981Z,14.70
2023-04-16T05:37:27.964Z,8.65
2023-04-16T05:39:58.842Z,14.15
2023-04-16T05:42:27.522Z,13.32
2023-04-16T05:44:55.816Z,9.18
2023-04-16T05:47:24.163Z,11.60
2023-04-16T05:49:52.566Z,12.32
2023-04-16T05:52:20.891Z,10.90
2023-04-16T05:54:50.459Z,14.07
2023-04-16T05:57:18.895Z,13.15
2023-04-16T05:59:47.164Z,8.18
2023-04-16T06:02:17.935Z,9.75
2023-04-16T06:04:46.327Z,12.07
2023-04-16T06:07:14.601Z,6.63
2023-04-16T06:09:45.184Z,10.23
2023-04-16T06:12:16.885Z,9.90
2023-04-16T06:14:45.122Z,11.40
2023-04-16T06:17:13.453Z,8.95
2023-04-16T06:19:41.830Z,8.52
2023-04-16T06:22:10.122Z,16.90
2023-04-16T06:24:38.367Z,13.23
2023-04-16T06:27:06.597Z,13.30
2023-04-16T06:29:41.086Z,11.27
2023-04-16T06:32:13.348Z,14.93
2023-04-16T06:34:41.585Z,7.05
2023-04-16T06:37:10.731Z,13.70
2023-04-16T06:39:39.304Z,10.55
2023-04-16T06:42:09.804Z,12.20
2023-04-16T06:44:39.379Z,10.23
2023-04-16T06:47:07.677Z,8.00
2023-04-16T06:49:36.170Z,8.23
2023-04-16T06:52:05.784Z,11.20
2023-04-16T06:54:34.650Z,10.98
2023-04-16T06:57:03.044Z,11.50
2023-04-16T06:59:31.396Z,14.27
2023-04-16T07:02:01.340Z,15.20
2023-04-16T07:04:34.415Z,11.45
2023-04-16T07:07:02.810Z,12.77
2023-04-16T07:09:32.919Z,11.20
2023-04-16T07:12:01.312Z,13.40
2023-04-16T07:14:31.448Z,15.27
2023-04-16T07:17:07.900Z,16.75
2023-04-16T07:19:37.175Z,14.15
2023-04-16T07:22:08.080Z,12.60
2023-04-16T07:24:36.556Z,10.93
2023-04-16T07:27:04.939Z,15.77
2023-04-16T07:29:37.697Z,13.93
2023-04-16T07:32:09.749Z,12.55
2023-04-16T07:34:42.740Z,11.82
2023-04-16T07:37:11.235Z,12.27
2023-04-16T07:39:39.988Z,10.95
2023-04-16T07:42:08.286Z,10.82
2023-04-16T07:44:36.748Z,17.25
2023-04-16T07:47:05.656Z,11.63
2023-04-16T07:49:35.597Z,16.85
2023-04-16T07:52:06.266Z,14.40
2023-04-16T07:54:34.516Z,13.23
2023-04-16T07:57:03.638Z,19.33
2023-04-16T07:59:31.999Z,18.25
2023-04-16T08:02:00.588Z,13.18
2023-04-16T08:04:29.064Z,11.73
2023-04-16T08:06:59.313Z,12.48
2023-04-16T08:09:28.704Z,11.93
2023-04-16T08:11:57.555Z,15.18
2023-04-16T08:14:26.074Z,13.68
2023-04-16T08:16:56.581Z,18.55
2023-04-16T08:19:27.244Z,14.70
2023-04-16T08:21:55.602Z,14.98
2023-04-16T08:24:25.415Z,15.00
2023-04-16T08:26:53.760Z,12.57
2023-04-16T08:29:22.048Z,16.52
2023-04-16T08:31:50.448Z,14.30
2023-04-16T08:34:20.871Z,15.50
2023-04-16T08:36:51.935Z,15.73
2023-04-16T08:39:22.409Z,13.63
2023-04-16T08:41:53.563Z,11.40
2023-04-16T08:44:22.906Z,15.88
2023-04-16T08:46:52.600Z,12.55
2023-04-16T08:49:21.065Z,18.75
2023-04-16T08:51:52.231Z,16.52
2023-04-16T08:54:26.011Z,13.32
2023-04-16T08:56:55.996Z,14.52
2023-04-16T08:59:28.780Z,8.82
2023-04-16T09:01:59.964Z,12.75
2023-04-16T09:04:29.902Z,12.52
2023-04-16T09:06:58.584Z,8.68
2023-04-16T09:09:27.812Z,12.32
2023-04-16T09:12:07.046Z,8.65
2023-04-16T09:14:36.068Z,14.43
2023-04-16T09:17:07.465Z,7.47
2023-04-16T09:19:36.242Z,13.35
2023-04-16T09:22:04.530Z,14.80
2023-04-16T09:24:33.302Z,10.85
2023-04-16T09:27:03.038Z,8.60
2023-04-16T09:29:41.314Z,11.65
2023-04-16T09:32:10.432Z,13.02
2023-04-16T09:34:58.555Z,11.45
2023-04-16T09:37:32.343Z,15.80
2023-04-16T09:40:01.468Z,11.20
2023-04-16T09:42:32.328Z,12.63
2023-04-16T09:45:02.616Z,11.82
2023-04-16T09:47:43.491Z,10.55
2023-04-16T09:50:17.800Z,12.65
2023-04-16T09:52:47.919Z,14.35
2023-04-16T09:55:16.449Z,9.95
2023-04-16T09:57:46.688Z,13.57
2023-04-16T10:00:15.855Z,13.30
2023-04-16T10:02:44.242Z,12.73
2023-04-16T10:05:18.814Z,15.32
2023-04-16T10:07:49.522Z,9.18
2023-04-16T10:10:22.387Z,9.45
2023-04-16T10:12:54.423Z,7.13
2023-04-16T10:15:23.400Z,11.82
2023-04-16T10:17:55.139Z,8.30
2023-04-16T10:20:24.599Z,12.32
2023-04-16T10:22:53.079Z,16.63
2023-04-16T10:25:28.840Z,13.32
2023-04-16T10:28:00.069Z,9.50
2023-04-16T10:30:31.435Z,12.25
2023-04-16T10:33:00.694Z,12.57
2023-04-16T10:35:31.317Z,10.07
2023-04-16T10:37:59.874Z,10.98
2023-04-16T10:40:29.569Z,13.23
2023-04-16T10:42:59.942Z,12.02
2023-04-16T10:45:28.753Z,10.80
2023-04-16T10:47:58.833Z,14.35
2023-04-16T10:50:27.193Z,11.40
2023-04-16T10:53:14.871Z,13.38
2023-04-16T10:55:43.238Z,18.85
2023-04-16T10:58:28.846Z,13.65
2023-04-16T11:01:01.137Z,15.10
2023-04-16T11:03:36.777Z,13.07
2023-04-16T11:06:16.633Z,15.07
2023-04-16T11:08:55.420Z,16.83
2023-04-16T11:11:24.438Z,10.20
2023-04-16T11:14:01.353Z,10.60
2023-04-16T11:16:33.450Z,15.50
2023-04-16T11:19:01.844Z,12.52
2023-04-16T11:21:32.704Z,12.73
2023-04-16T11:24:03.166Z,12.07
2023-04-16T11:26:34.235Z,16.80
2023-04-16T11:29:04.893Z,12.32
2023-04-16T11:31:34.576Z,12.55
2023-04-16T11:34:03.766Z,16.83
2023-04-16T11:36:44.303Z,11.23
2023-04-16T11:39:12.899Z,11.20
2023-04-16T11:41:44.703Z,11.45
2023-04-16T11:44:22.531Z,17.10
2023-04-16T11:46:52.759Z,14.63
2023-04-16T11:49:28.893Z,14.75
2023-04-16T11:51:57.332Z,15.15
2023-04-16T11:54:26.108Z,17.55
2023-04-16T11:56:55.172Z,11.02
2023-04-16T11:59:26.692Z,14.20
2023-04-16T12:01:56.820Z,15.00
2023-04-16T12:04:26.899Z,15.52
2023-04-16T12:07:08.478Z,13.80
2023-04-16T12:09:40.112Z,18.05
2023-04-16T12:12:32.513Z,9.25
2023-04-16T12:15:03.710Z,13.25
2023-04-16T12:17:35.285Z,15.63
2023-04-16T12:20:06.162Z,15.20
2023-04-16T12:22:37.016Z,16.83
2023-04-16T12:25:08.700Z,16.27
2023-04-16T12:27:46.807Z,14.55
2023-04-16T12:30:16.103Z,16.50
2023-04-16T12:32:51.625Z,17.08
2023-04-16T12:35:31.610Z,20.55
2023-04-16T12:37:59.957Z,16.85
2023-04-16T12:40:28.543Z,16.38
2023-04-16T12:42:57.477Z,20.40
2023-04-16T12:45:28.771Z,17.23
2023-04-16T12:47:58.659Z,13.48
2023-04-16T12:50:28.586Z,18.85
2023-04-16T12:52:57.116Z,19.88
2023-04-16T12:55:25.912Z,15.95
2023-04-16T12:57:54.173Z,15.60
2023-04-16T13:00:22.557Z,17.90
2023-04-16T13:02:51.149Z,15.63
2023-04-16T13:05:25.916Z,14.18
2023-04-16T13:08:05.173Z,21.02
2023-04-16T13:10:33.437Z,20.52
2023-04-16T13:13:02.050Z,22.88
2023-04-16T13:15:30.666Z,23.50
2023-04-16T13:17:59.399Z,20.10
2023-04-16T13:20:29.664Z,20.65
2023-04-16T13:22:58.524Z,20.08
2023-04-16T13:25:26.948Z,22.33
2023-04-16T13:27:55.378Z,15.57
2023-04-16T13:30:23.616Z,17.40
2023-04-16T13:32:54.174Z,15.73
2023-04-16T13:35:22.621Z,17.05
2023-04-16T13:37:52.234Z,16.38
2023-04-16T13:40:20.710Z,18.52
2023-04-16T13:42:49.024Z,17.38
2023-04-16T13:45:17.324Z,19.73
2023-04-16T13:47:50.022Z,15.20
2023-04-16T13:50:18.504Z,12.32
2023-04-16T13:52:46.748Z,16.67
2023-04-16T13:55:19.022Z,18.67
2023-04-16T13:57:53.366Z,20.00
2023-04-16T14:00:22.050Z,15.70
2023-04-16T14:02:50.637Z,15.32
2023-04-16T14:05:19.500Z,18.50
2023-04-16T14:07:47.812Z,18.35
2023-04-16T14:10:20.114Z,18.02
2023-04-16T14:12:48.330Z,21.02
2023-04-16T14:15:16.847Z,17.27
2023-04-16T14:17:45.381Z,24.95
2023-04-16T14:20:14.747Z,20.77
2023-04-16T14:22:43.856Z,18.50
2023-04-16T14:25:12.314Z,22.85
2023-04-16T14:27:42.298Z,20.77
2023-04-16T14:30:19.534Z,16.30
2023-04-16T14:32:48.084Z,23.77
2023-04-16T14:35:20.297Z,23.63
2023-04-16T14:37:48.789Z,20.45
2023-04-16T14:40:17.173Z,20.55
2023-04-16T14:42:46.731Z,19.70
2023-04-16T14:45:19.631Z,21.02
2023-04-16T14:47:48.167Z,20.23
2023-04-16T14:50:16.547Z,21.83
2023-04-16T14:52:44.893Z,19.25
2023-04-16T14:55:13.271Z,17.30
2023-04-16T14:57:41.943Z,16.10
2023-04-16T15:00:13.466Z,19.73
2023-04-16T15:02:41.856Z,16.33
2023-04-16T15:05:12.962Z,19.17
2023-04-16T15:07:41.175Z,18.70
2023-04-16T15:10:10.860Z,17.05
2023-04-16T15:12:39.193Z,17.17
2023-04-16T15:15:08.186Z,15.93
2023-04-16T15:17:40.193Z,15.50
2023-04-16T15:20:10.552Z,17.45
2023-04-16T15:22:45.919Z,14.55
2023-04-16T15:25:14.594Z,18.88
2023-04-16T15:27:42.894Z,17.33
2023-04-16T15:30:12.632Z,19.67
2023-04-16T15:32:44.506Z,21.33
2023-04-16T15:35:15.330Z,22.15
2023-04-16T15:37:48.263Z,18.17
2023-04-16T15:40:18.770Z,17.27
2023-04-16T15:42:47.166Z,16.08
2023-04-16T15:45:17.783Z,23.00
2023-04-16T15:47:51.386Z,18.42
2023-04-16T15:50:20.188Z,16.25
2023-04-16T15:52:48.507Z,19.25
2023-04-16T15:55:17.163Z,20.23
2023-04-16T15:57:47.781Z,21.42
2023-04-16T16:00:17.155Z,19.33
2023-04-16T16:02:49.514Z,15.68
2023-04-16T16:05:18.630Z,19.63
2023-04-16T16:07:46.933Z,19.45
2023-04-16T16:10:17.697Z,16.77
2023-04-16T16:12:46.412Z,17.92
2023-04-16T16:15:14.835Z,22.70
2023-04-16T16:17:43.149Z,17.90
2023-04-16T16:20:15.023Z,22.70
2023-04-16T16:22:45.331Z,15.43
2023-04-16T16:25:14.350Z,16.70
2023-04-16T16:27:42.607Z,16.92
2023-04-16T16:30:13.663Z,20.10
2023-04-16T16:32:46.630Z,22.40
2023-04-16T16:35:16.352Z,20.30
2023-04-16T16:37:47.052Z,19.92
2023-04-16T16:40:15.502Z,18.80
2023-04-16T16:42:43.846Z,16.15
2023-04-16T16:45:12.615Z,20.60
2023-04-16T16:47:41.080Z,18.77
2023-04-16T16:50:11.413Z,20.02
2023-04-16T16:52:41.074Z,20.05
2023-04-16T16:55:11.016Z,16.35
2023-04-16T16:57:39.564Z,16.42
2023-04-16T17:00:15.013Z,19.35
2023-04-16T17:02:45.733Z,20.58
2023-04-16T17:05:14.225Z,23.75
2023-04-16T17:07:46.360Z,13.05
2023-04-16T17:10:19.990Z,15.93
2023-04-16T17:12:48.686Z,18.65
2023-04-16T17:15:19.112Z,13.48
2023-04-16T17:17:51.423Z,14.85
2023-04-16T17:20:19.946Z,18.50
2023-04-16T17:22:52.319Z,15.77
2023-04-16T17:25:23.040Z,19.23
2023-04-16T17:27:55.698Z,19.42
2023-04-16T17:30:28.002Z,21.00
2023-04-16T17:32:56.603Z,19.58
2023-04-16T17:35:24.965Z,19.83
2023-04-16T17:37:54.734Z,17.63
2023-04-16T17:40:23.047Z,19.30
2023-04-16T17:42:51.388Z,23.30
2023-04-16T17:45:19.745Z,19.02
2023-04-16T17:47:50.410Z,21.02
2023-04-16T17:50:18.689Z,17.35
2023-04-16T17:52:49.381Z,20.00
2023-04-16T17:55:19.201Z,24.88
2023-04-16T17:57:47.874Z,28.33
2023-04-16T18:00:17.145Z,22.38
2023-04-16T18:02:46.644Z,27.25
2023-04-16T18:05:21.652Z,38.33
2023-04-16T18:10:40.012Z,23.10
2023-04-16T18:13:08.528Z,25.55
2023-04-16T18:15:37.917Z,20.27
2023-04-16T18:18:06.495Z,25.60
2023-04-16T18:20:35.431Z,22.00
2023-04-16T18:23:03.822Z,24.50
2023-04-16T18:25:35.022Z,20.45
2023-04-16T18:28:06.256Z,27.40
2023-04-16T18:30:35.491Z,26.10
2023-04-16T18:33:34.439Z,27.75
2023-04-16T18:35:54.374Z,28.10
2023-04-16T18:38:22.690Z,26.65
2023-04-16T18:40:51.057Z,30.77
2023-04-16T18:43:20.857Z,29.10
2023-04-16T18:45:51.705Z,27.52
2023-04-16T18:48:19.991Z,30.45
2023-04-16T18:50:48.388Z,29.90
2023-04-16T18:53:16.616Z,25.48
2023-04-16T18:55:44.895Z,25.38
2023-04-16T18:58:13.417Z,29.55
2023-04-16T19:00:42.987Z,25.50
2023-04-16T19:03:11.341Z,24.95
2023-04-16T19:05:40.002Z,28.83
2023-04-16T19:08:08.237Z,32.08
2023-04-16T19:10:38.668Z,24.92
2023-04-16T19:13:07.151Z,30.33
2023-04-16T19:15:35.598Z,26.15
2023-04-16T19:18:05.666Z,28.55
2023-04-16T19:20:37.992Z,34.90
2023-04-16T19:23:11.505Z,32.08
2023-04-16T19:25:41.272Z,29.05
2023-04-16T19:28:09.586Z,25.45
2023-04-16T19:30:39.457Z,29.67
2023-04-16T19:33:09.337Z,29.15
2023-04-16T19:35:39.947Z,29.15
2023-04-16T19:38:10.997Z,26.85
2023-04-16T19:40:39.949Z,27.35
2023-04-16T19:43:12.323Z,29.55
2023-04-16T19:45:44.379Z,30.45
2023-04-16T19:48:14.502Z,37.88
2023-04-16T19:50:43.269Z,35.13
2023-04-16T19:53:13.898Z,30.38
2023-04-16T19:55:42.445Z,32.10
2023-04-16T19:58:10.823Z,34.13
2023-04-16T20:00:42.146Z,28.67
2023-04-16T20:03:10.961Z,33.58
2023-04-16T20:05:40.602Z,31.98
2023-04-16T20:08:15.573Z,36.70
2023-04-16T20:10:44.219Z,28.63
2023-04-16T20:13:13.682Z,31.05
2023-04-16T20:15:41.955Z,28.75
2023-04-16T20:18:10.553Z,26.20
2023-04-16T20:20:43.248Z,25.02
2023-04-16T20:23:13.207Z,26.30
2023-04-16T20:25:42.508Z,27.83
2023-04-16T20:28:11.028Z,23.08
2023-04-16T20:30:41.478Z,24.33
2023-04-16T20:33:10.528Z,22.50
2023-04-16T20:35:38.789Z,26.75
2023-04-16T20:38:08.777Z,24.90
2023-04-16T20:40:38.799Z,27.30
2023-04-16T20:43:10.009Z,28.02
2023-04-16T20:45:45.996Z,23.35
2023-04-16T20:48:14.390Z,24.67
2023-04-16T20:50:46.957Z,22.45
2023-04-16T20:53:15.886Z,22.10
2023-04-16T20:55:48.347Z,28.17
2023-04-16T20:58:29.935Z,30.67
2023-04-16T21:01:00.974Z,26.35
2023-04-16T21:03:30.130Z,24.67
2023-04-16T21:05:58.729Z,29.45
2023-04-16T21:08:27.134Z,27.10
2023-04-16T21:10:59.067Z,27.48
2023-04-16T21:13:29.845Z,26.35
2023-04-16T21:15:58.705Z,26.35
2023-04-16T21:18:27.193Z,27.75
2023-04-16T21:20:55.615Z,29.67
2023-04-16T21:23:31.488Z,29.05
2023-04-16T21:26:04.149Z,26.83
2023-04-16T21:28:32.444Z,28.65
2023-04-16T21:31:03.195Z,35.78
2023-04-16T21:33:36.635Z,31.35
2023-04-16T21:36:05.060Z,31.90
2023-04-16T21:38:33.424Z,28.65
2023-04-16T21:41:06.033Z,33.50
2023-04-16T21:43:34.508Z,30.33
2023-04-16T21:46:02.805Z,30.02
2023-04-16T21:48:35.875Z,26.10
2023-04-16T21:51:08.096Z,30.00
2023-04-16T21:53:37.136Z,32.28
2023-04-16T21:56:07.206Z,32.35
2023-04-16T21:58:40.003Z,32.25
2023-04-16T22:01:10.867Z,26.40
2023-04-16T22:03:41.935Z,28.50
2023-04-16T22:06:16.740Z,28.20
2023-04-16T22:08:45.124Z,25.13
2023-04-16T22:11:14.696Z,28.13
2023-04-16T22:13:43.218Z,26.67
2023-04-16T22:16:12.520Z,29.83
2023-04-16T22:18:41.006Z,30.38
2023-04-16T22:21:11.449Z,28.77
2023-04-16T22:23:39.837Z,32.88
2023-04-16T22:26:08.955Z,29.50
2023-04-16T22:28:41.024Z,27.63
2023-04-16T22:31:10.097Z,28.92
2023-04-16T22:33:39.388Z,30.55
2023-04-16T22:36:07.978Z,33.70
2023-04-16T22:38:38.025Z,28.48
2023-04-16T22:41:08.851Z,28.95
2023-04-16T22:43:38.729Z,27.95
2023-04-16T22:46:07.956Z,24.70
2023-04-16T22:48:38.176Z,26.77
2023-04-16T22:51:07.049Z,27.75
2023-04-16T22:53:35.938Z,23.88
2023-04-16T22:56:06.565Z,25.55
2023-04-16T22:58:34.979Z,28.25
2023-04-16T23:01:04.673Z,24.45
2023-04-16T23:03:33.502Z,22.42
2023-04-16T23:06:03.517Z,26.95
2023-04-16T23:08:31.844Z,24.23
2023-04-16T23:11:00.179Z,28.02
2023-04-16T23:13:28.592Z,27.42
2023-04-16T23:15:57.098Z,24.23
2023-04-16T23:18:26.934Z,26.95
2023-04-16T23:20:55.614Z,27.83
2023-04-16T23:23:23.923Z,28.23
2023-04-16T23:25:54.250Z,25.55
2023-04-16T23:28:22.959Z,24.83
2023-04-16T23:30:53.462Z,32.80
2023-04-16T23:33:22.243Z,24.80
2023-04-16T23:35:52.121Z,24.90
2023-04-16T23:38:30.047Z,27.98
2023-04-16T23:41:04.669Z,21.35
2023-04-16T23:43:40.803Z,24.98
2023-04-16T23:46:09.210Z,26.02
2023-04-16T23:48:37.475Z,28.63
2023-04-16T23:51:07.559Z,23.85
2023-04-16T23:53:36.373Z,29.63
2023-04-16T23:56:04.675Z,39.50
2023-04-16T23:58:33.020Z,22.92
